Time;durP1;ratioP1;P1;durP2;ratioP2;P2;SDS_P1;SDS_P2;PMS_P1;PMS_P2;Temp;Humidity;BMP_temperature;BMP_pressure;BME280_temperature;BME280_humidity;BME280_pressure;Samples;Min_cycle;Max_cycle;Signal;HPM_P1;HPM_P2
2023/10/20 00:01:15;;;;;;;1999.90;999.90;;;;;;;;;;5066523;28;20196;-64
2023/10/20 00:03:42;;;;;;;1999.90;999.90;;;;;;;;;;5067336;28;20212;-64
2023/10/20 00:06:11;;;;;;;1999.90;999.90;;;;;;;;;;5066524;28;20192;-63
2023/10/20 00:08:38;;;;;;;1999.90;999.90;;;;;;;;;;5067672;28;20204;-64
2023/10/20 00:11:06;;;;;;;1999.90;999.90;;;;;;;;;;5066150;28;20604;-63
2023/10/20 00:13:34;;;;;;;1999.90;999.90;;;;;;;;;;5066877;28;20225;-63
2023/10/20 00:16:02;;;;;;;1999.90;999.90;;;;;;;;;;5065532;28;20235;-65
2023/10/20 00:18:29;;;;;;;1999.90;999.90;;;;;;;;;;5066495;28;20196;-63
2023/10/20 00:20:56;;;;;;;1999.90;999.90;;;;;;;;;;5065702;28;20201;-63
2023/10/20 00:23:25;;;;;;;1999.90;999.90;;;;;;;;;;5066216;28;20192;-63
2023/10/20 00:25:52;;;;;;;1999.90;999.90;;;;;;;;;;5067639;28;20195;-63
2023/10/20 00:28:19;;;;;;;1999.90;999.90;;;;;;;;;;5066150;28;20254;-65
2023/10/20 00:30:47;;;;;;;1999.90;999.90;;;;;;;;;;5067127;28;20211;-63
2023/10/20 00:33:15;;;;;;;1999.90;999.90;;;;;;;;;;5066545;28;20203;-65
2023/10/20 00:35:42;;;;;;;1999.90;999.90;;;;;;;;;;5066624;28;20183;-64
2023/10/20 00:38:10;;;;;;;1999.90;999.90;;;;;;;;;;5066523;28;20198;-64
2023/10/20 00:40:46;;;;;;;1999.90;999.90;;;;;;;;;;5066227;28;20192;-65
2023/10/20 00:43:13;;;;;;;1999.90;999.90;;;;;;;;;;5065674;28;20218;-63
2023/10/20 00:45:41;;;;;;;1999.90;999.90;;;;;;;;;;5066604;28;20632;-62
2023/10/20 00:48:09;;;;;;;1999.90;999.90;;;;;;;;;;5066650;28;20554;-63
2023/10/20 00:50:38;;;;;;;1999.90;999.90;;;;;;;;;;5066389;28;20199;-63
2023/10/20 00:53:07;;;;;;;1999.90;999.90;;;;;;;;;;5066429;28;20203;-63
2023/10/20 00:55:34;;;;;;;1999.90;999.90;;;;;;;;;;5066461;28;20566;-65
2023/10/20 00:58:03;;;;;;;1999.90;999.90;;;;;;;;;;5064908;28;21077;-63
2023/10/20 01:00:30;;;;;;;1999.90;999.90;;;;;;;;;;5066828;28;20197;-63
2023/10/20 01:02:58;;;;;;;1999.90;999.90;;;;;;;;;;5066501;28;20202;-63
2023/10/20 01:05:26;;;;;;;1999.90;999.90;;;;;;;;;;5066397;28;20205;-63
2023/10/20 01:07:54;;;;;;;1999.90;999.90;;;;;;;;;;5066773;28;20195;-63
2023/10/20 01:10:21;;;;;;;1999.90;999.90;;;;;;;;;;5064520;28;20202;-63
2023/10/20 01:12:48;;;;;;;1999.90;999.90;;;;;;;;;;5066649;28;20226;-64
2023/10/20 01:15:18;;;;;;;1999.90;999.90;;;;;;;;;;5065923;28;20234;-62
2023/10/20 01:17:45;;;;;;;1999.90;999.90;;;;;;;;;;5066996;28;20202;-64
2023/10/20 01:20:13;;;;;;;1999.90;999.90;;;;;;;;;;5065980;28;20613;-64
2023/10/20 01:22:41;;;;;;;1999.90;999.90;;;;;;;;;;5068243;28;20279;-64
2023/10/20 01:25:10;;;;;;;1999.90;999.90;;;;;;;;;;5070229;28;20279;-63
2023/10/20 01:27:38;;;;;;;1999.90;999.90;;;;;;;;;;5069512;28;20260;-63
2023/10/20 01:30:06;;;;;;;1999.90;999.90;;;;;;;;;;5070392;28;20282;-63
2023/10/20 01:32:35;;;;;;;1999.90;999.90;;;;;;;;;;5069655;28;20229;-63
2023/10/20 01:35:03;;;;;;;1999.90;999.90;;;;;;;;;;5070279;28;20203;-63
2023/10/20 01:37:30;;;;;;;1999.90;999.90;;;;;;;;;;5067966;28;20724;-63
2023/10/20 01:39:57;;;;;;;1999.90;999.90;;;;;;;;;;5069965;28;20208;-63
2023/10/20 01:42:26;;;;;;;1999.90;999.90;;;;;;;;;;5069003;28;20207;-63
2023/10/20 01:44:53;;;;;;;1999.90;999.90;;;;;;;;;;5069711;28;20592;-63
2023/10/20 01:47:21;;;;;;;1999.90;999.90;;;;;;;;;;5069905;28;20195;-63
2023/10/20 01:49:49;;;;;;;1999.90;999.90;;;;;;;;;;5069611;28;20216;-63
2023/10/20 01:52:16;;;;;;;1999.90;999.90;;;;;;;;;;5070062;28;20223;-63
2023/10/20 01:54:44;;;;;;;1999.90;999.90;;;;;;;;;;5068983;28;20199;-63
2023/10/20 01:57:11;;;;;;;1999.90;999.90;;;;;;;;;;5069532;28;20229;-63
2023/10/20 01:59:40;;;;;;;1999.90;999.90;;;;;;;;;;5069024;28;20195;-63
2023/10/20 02:02:08;;;;;;;1999.90;999.90;;;;;;;;;;5069451;28;20655;-66
2023/10/20 02:04:36;;;;;;;1999.90;999.90;;;;;;;;;;5069214;28;20199;-65
2023/10/20 02:07:03;;;;;;;1999.90;999.90;;;;;;;;;;5069599;28;20195;-65
2023/10/20 02:09:31;;;;;;;1999.90;999.90;;;;;;;;;;5067920;28;20208;-64
2023/10/20 02:11:58;;;;;;;1999.90;999.90;;;;;;;;;;5069012;28;20250;-63
2023/10/20 02:14:26;;;;;;;1999.90;999.90;;;;;;;;;;5068921;28;20230;-63
2023/10/20 02:16:55;;;;;;;1999.90;999.90;;;;;;;;;;5069218;28;20195;-65
2023/10/20 02:19:22;;;;;;;1999.90;999.90;;;;;;;;;;5069156;28;20203;-64
2023/10/20 02:21:51;;;;;;;1999.90;999.90;;;;;;;;;;5068996;28;20191;-63
2023/10/20 02:24:18;;;;;;;1999.90;999.90;;;;;;;;;;5068746;28;20188;-64
2023/10/20 02:26:46;;;;;;;1999.90;999.90;;;;;;;;;;5067596;28;20210;-63
2023/10/20 02:29:14;;;;;;;1999.90;999.90;;;;;;;;;;5068605;28;20205;-64
2023/10/20 02:31:42;;;;;;;1999.90;999.90;;;;;;;;;;5068969;28;20214;-65
2023/10/20 02:34:11;;;;;;;1999.90;999.90;;;;;;;;;;5067834;28;20199;-64
2023/10/20 02:36:38;;;;;;;1999.90;999.90;;;;;;;;;;5066945;28;20196;-63
2023/10/20 02:39:05;;;;;;;1999.90;999.90;;;;;;;;;;5068490;28;20194;-63
2023/10/20 02:41:33;;;;;;;1999.90;999.90;;;;;;;;;;5068504;28;20537;-65
2023/10/20 02:44:00;;;;;;;1999.90;999.90;;;;;;;;;;5069206;28;20195;-64
2023/10/20 02:46:27;;;;;;;1999.90;999.90;;;;;;;;;;5068348;28;20195;-63
2023/10/20 02:48:55;;;;;;;1999.90;999.90;;;;;;;;;;5068945;28;20191;-63
2023/10/20 02:51:23;;;;;;;1999.90;999.90;;;;;;;;;;5068257;28;20192;-65
2023/10/20 02:53:51;;;;;;;1999.90;999.90;;;;;;;;;;5068185;28;20733;-65
2023/10/20 02:56:19;;;;;;;1999.90;999.90;;;;;;;;;;5068890;28;20228;-63
2023/10/20 02:58:47;;;;;;;1999.90;999.90;;;;;;;;;;5068268;28;20215;-64
2023/10/20 03:01:15;;;;;;;1999.90;999.90;;;;;;;;;;5068916;28;20199;-65
2023/10/20 03:03:42;;;;;;;1999.90;999.90;;;;;;;;;;5067784;28;20303;-64
2023/10/20 03:06:10;;;;;;;1999.90;999.90;;;;;;;;;;5068472;28;20225;-64
2023/10/20 03:08:39;;;;;;;1999.90;999.90;;;;;;;;;;5067585;28;20529;-65
2023/10/20 03:11:07;;;;;;;1999.90;999.90;;;;;;;;;;5068523;28;20199;-65
2023/10/20 03:13:34;;;;;;;1999.90;999.90;;;;;;;;;;5067627;28;20706;-65
2023/10/20 03:16:02;;;;;;;1999.90;999.90;;;;;;;;;;5066700;28;20216;-63
2023/10/20 03:18:29;;;;;;;1999.90;999.90;;;;;;;;;;5068070;28;20205;-63
2023/10/20 03:21:00;;;;;;;1999.90;999.90;;;;;;;;;;5067303;28;20196;-63
2023/10/20 03:23:27;;;;;;;1999.90;999.90;;;;;;;;;;5068350;28;20180;-64
2023/10/20 03:25:56;;;;;;;1999.90;999.90;;;;;;;;;;5067563;28;20797;-66
2023/10/20 03:28:23;;;;;;;1999.90;999.90;;;;;;;;;;5067903;28;20193;-64
2023/10/20 03:30:51;;;;;;;1999.90;999.90;;;;;;;;;;5067426;28;20198;-64
2023/10/20 03:33:18;;;;;;;1999.90;999.90;;;;;;;;;;5067319;28;20694;-65
2023/10/20 03:35:46;;;;;;;1999.90;999.90;;;;;;;;;;5067364;28;20193;-64
2023/10/20 03:38:14;;;;;;;1999.90;999.90;;;;;;;;;;5067056;28;20188;-64
2023/10/20 03:40:41;;;;;;;1999.90;999.90;;;;;;;;;;5066919;28;20192;-64
2023/10/20 03:43:11;;;;;;;1999.90;999.90;;;;;;;;;;5066888;28;20625;-64
2023/10/20 03:45:41;;;;;;;1999.90;999.90;;;;;;;;;;5065826;28;20785;-65
2023/10/20 03:48:09;;;;;;;1999.90;999.90;;;;;;;;;;5066976;28;20197;-64
2023/10/20 03:50:38;;;;;;;1999.90;999.90;;;;;;;;;;5068039;28;20223;-62
2023/10/20 03:53:06;;;;;;;1999.90;999.90;;;;;;;;;;5067106;28;20209;-64
2023/10/20 03:55:34;;;;;;;1999.90;999.90;;;;;;;;;;5067134;28;20206;-66
2023/10/20 03:58:02;;;;;;;1999.90;999.90;;;;;;;;;;5066725;28;20194;-64
2023/10/20 04:00:32;;;;;;;1999.90;999.90;;;;;;;;;;5066766;28;20209;-63
2023/10/20 04:02:59;;;;;;;1999.90;999.90;;;;;;;;;;5066894;28;20449;-64
2023/10/20 04:05:26;;;;;;;1999.90;999.90;;;;;;;;;;5067239;28;20568;-63
2023/10/20 04:07:54;;;;;;;1999.90;999.90;;;;;;;;;;5066701;28;20652;-65
2023/10/20 04:10:21;;;;;;;1999.90;999.90;;;;;;;;;;5066848;28;20221;-63
2023/10/20 04:12:49;;;;;;;1999.90;999.90;;;;;;;;;;5066450;28;20221;-66
2023/10/20 04:15:19;;;;;;;1999.90;999.90;;;;;;;;;;5065567;28;20229;-63
2023/10/20 04:17:51;;;;;;;1999.90;999.90;;;;;;;;;;5066456;28;20192;-65
2023/10/20 04:20:19;;;;;;;1999.90;999.90;;;;;;;;;;5067333;28;20292;-63
2023/10/20 04:22:50;;;;;;;1999.90;999.90;;;;;;;;;;5065160;28;20205;-63
2023/10/20 04:25:18;;;;;;;1999.90;999.90;;;;;;;;;;5066634;28;20590;-63
2023/10/20 04:27:49;;;;;;;1999.90;999.90;;;;;;;;;;5066777;28;20670;-63
2023/10/20 04:47:36;;;;;;;1999.90;999.90;;;;;;;;;;5033219;28;20225;-63
2023/10/20 04:53:11;;;;;;;1999.90;999.90;;;;;;;;;;5023626;28;20268;-65
2023/10/20 04:58:42;;;;;;;1999.90;999.90;;;;;;;;;;5044780;28;20217;-64
2023/10/20 05:01:19;;;;;;;1999.90;999.90;;;;;;;;;;5049945;28;20182;-63
2023/10/20 05:03:46;;;;;;;1999.90;999.90;;;;;;;;;;5050760;28;20645;-65
2023/10/20 05:06:25;;;;;;;1999.90;999.90;;;;;;;;;;5050418;28;20600;-64
2023/10/20 05:08:53;;;;;;;1999.90;999.90;;;;;;;;;;5049982;28;20668;-65
2023/10/20 05:11:20;;;;;;;1999.90;999.90;;;;;;;;;;5063568;28;20309;-65
2023/10/20 05:13:47;;;;;;;1999.90;999.90;;;;;;;;;;5069501;28;20222;-64
2023/10/20 05:16:15;;;;;;;1999.90;999.90;;;;;;;;;;5069809;28;20590;-64
2023/10/20 05:18:44;;;;;;;1999.90;999.90;;;;;;;;;;5069271;28;20196;-64
2023/10/20 05:21:12;;;;;;;1999.90;999.90;;;;;;;;;;5069170;28;20191;-64
2023/10/20 05:23:41;;;;;;;1999.90;999.90;;;;;;;;;;5070111;28;20183;-66
2023/10/20 05:26:10;;;;;;;1999.90;999.90;;;;;;;;;;5069346;28;20196;-63
2023/10/20 05:28:37;;;;;;;1999.90;999.90;;;;;;;;;;5069374;28;20680;-64
2023/10/20 05:31:05;;;;;;;1999.90;999.90;;;;;;;;;;5068107;28;20209;-64
2023/10/20 05:33:32;;;;;;;1999.90;999.90;;;;;;;;;;5069951;28;20213;-64
2023/10/20 05:36:03;;;;;;;1999.90;999.90;;;;;;;;;;5068800;28;20217;-66
2023/10/20 05:38:31;;;;;;;1999.90;999.90;;;;;;;;;;5070319;28;20243;-64
2023/10/20 05:41:00;;;;;;;1999.90;999.90;;;;;;;;;;5069330;28;20590;-64
2023/10/20 05:43:29;;;;;;;1999.90;999.90;;;;;;;;;;5069655;28;20882;-64
2023/10/20 05:45:57;;;;;;;1999.90;999.90;;;;;;;;;;5068540;28;20241;-64
2023/10/20 05:48:24;;;;;;;1999.90;999.90;;;;;;;;;;5069294;28;20208;-64
2023/10/20 05:50:56;;;;;;;1999.90;999.90;;;;;;;;;;5070199;28;20201;-63
2023/10/20 05:53:24;;;;;;;1999.90;999.90;;;;;;;;;;5069415;28;20215;-63
2023/10/20 05:55:51;;;;;;;1999.90;999.90;;;;;;;;;;5069803;28;20208;-64
2023/10/20 05:58:19;;;;;;;1999.90;999.90;;;;;;;;;;5069222;28;20199;-65
2023/10/20 06:00:48;;;;;;;1999.90;999.90;;;;;;;;;;5068803;28;20206;-63
2023/10/20 06:03:15;;;;;;;1999.90;999.90;;;;;;;;;;5068229;28;20272;-64
2023/10/20 06:05:44;;;;;;;1999.90;999.90;;;;;;;;;;5068829;28;20191;-64
2023/10/20 06:08:11;;;;;;;1999.90;999.90;;;;;;;;;;5068390;28;20770;-64
2023/10/20 06:10:38;;;;;;;1999.90;999.90;;;;;;;;;;5068602;28;20198;-63
2023/10/20 06:13:06;;;;;;;1999.90;999.90;;;;;;;;;;5068395;28;20221;-63
2023/10/20 06:15:34;;;;;;;1999.90;999.90;;;;;;;;;;5068700;28;20253;-64
2023/10/20 06:18:02;;;;;;;1999.90;999.90;;;;;;;;;;5068461;28;20204;-65
2023/10/20 06:20:29;;;;;;;1999.90;999.90;;;;;;;;;;5068103;28;20228;-64
2023/10/20 06:22:56;;;;;;;1999.90;999.90;;;;;;;;;;5068680;28;20704;-64
2023/10/20 06:25:24;;;;;;;1999.90;999.90;;;;;;;;;;5068269;28;20196;-64
2023/10/20 06:27:52;;;;;;;1999.90;999.90;;;;;;;;;;5069040;28;20203;-63
2023/10/20 06:30:23;;;;;;;1999.90;999.90;;;;;;;;;;5068456;28;20201;-63
2023/10/20 06:33:12;;;;;;;1999.90;999.90;;;;;;;;;;5069149;28;20626;-64
2023/10/20 06:35:50;;;;;;;1999.90;999.90;;;;;;;;;;5068878;28;20193;-63
2023/10/20 06:38:19;;;;;;;1999.90;999.90;;;;;;;;;;5067512;28;20250;-64
2023/10/20 06:40:48;;;;;;;1999.90;999.90;;;;;;;;;;5068631;28;20200;-64
2023/10/20 06:43:16;;;;;;;1999.90;999.90;;;;;;;;;;5068507;28;20194;-64
2023/10/20 06:45:44;;;;;;;1999.90;999.90;;;;;;;;;;5068772;28;20189;-65
2023/10/20 06:48:14;;;;;;;1999.90;999.90;;;;;;;;;;5068084;28;20196;-65
2023/10/20 06:50:42;;;;;;;1999.90;999.90;;;;;;;;;;5068855;28;20188;-65
2023/10/20 06:53:09;;;;;;;1999.90;999.90;;;;;;;;;;5067968;28;20221;-65
2023/10/20 06:55:36;;;;;;;1999.90;999.90;;;;;;;;;;5068978;28;20683;-65
2023/10/20 06:58:04;;;;;;;1999.90;999.90;;;;;;;;;;5068040;28;20668;-64
2023/10/20 07:00:31;;;;;;;1999.90;999.90;;;;;;;;;;5067327;28;20199;-64
2023/10/20 07:02:58;;;;;;;1999.90;999.90;;;;;;;;;;5066999;28;20195;-65
2023/10/20 07:05:27;;;;;;;1999.90;999.90;;;;;;;;;;5067765;28;20188;-65
2023/10/20 07:07:54;;;;;;;1999.90;999.90;;;;;;;;;;5068409;28;20200;-65
2023/10/20 07:10:22;;;;;;;1999.90;999.90;;;;;;;;;;5067661;28;20552;-66
2023/10/20 07:12:49;;;;;;;1999.90;999.90;;;;;;;;;;5068643;28;20231;-65
2023/10/20 07:15:17;;;;;;;1999.90;999.90;;;;;;;;;;5067065;28;20695;-65
2023/10/20 07:17:44;;;;;;;1999.90;999.90;;;;;;;;;;5068527;28;20193;-66
2023/10/20 07:20:12;;;;;;;1999.90;999.90;;;;;;;;;;5067190;28;20196;-66
2023/10/20 07:22:41;;;;;;;1999.90;999.90;;;;;;;;;;5067679;28;20195;-65
2023/10/20 07:25:08;;;;;;;1999.90;999.90;;;;;;;;;;5066892;28;20278;-65
2023/10/20 07:27:36;;;;;;;1999.90;999.90;;;;;;;;;;5068249;28;20286;-65
2023/10/20 07:30:06;;;;;;;1999.90;999.90;;;;;;;;;;5068244;28;20192;-65
2023/10/20 07:32:33;;;;;;;1999.90;999.90;;;;;;;;;;5067646;28;20186;-65
2023/10/20 07:35:01;;;;;;;1999.90;999.90;;;;;;;;;;5064558;28;20183;-65
2023/10/20 07:37:28;;;;;;;1999.90;999.90;;;;;;;;;;5066199;28;20196;-67
2023/10/20 07:39:57;;;;;;;1999.90;999.90;;;;;;;;;;5065617;28;20191;-67
2023/10/20 07:42:24;;;;;;;1999.90;999.90;;;;;;;;;;5064337;28;20227;-66
2023/10/20 07:44:51;;;;;;;1999.90;999.90;;;;;;;;;;5064607;28;20219;-66
2023/10/20 07:47:19;;;;;;;1999.90;999.90;;;;;;;;;;5065394;28;20203;-66
2023/10/20 07:49:46;;;;;;;1999.90;999.90;;;;;;;;;;5065473;28;20662;-65
2023/10/20 07:52:13;;;;;;;1999.90;999.90;;;;;;;;;;5066891;28;20278;-65
2023/10/20 07:54:40;;;;;;;1999.90;999.90;;;;;;;;;;5066691;28;20211;-65
2023/10/20 07:57:10;;;;;;;1999.90;999.90;;;;;;;;;;5066799;28;20673;-66
2023/10/20 07:59:37;;;;;;;1999.90;999.90;;;;;;;;;;5046386;28;20192;-66
2023/10/20 08:02:05;;;;;;;1999.90;999.90;;;;;;;;;;5061290;28;20654;-66
2023/10/20 08:04:33;;;;;;;1999.90;999.90;;;;;;;;;;5064201;28;20628;-66
2023/10/20 08:07:00;;;;;;;1999.90;999.90;;;;;;;;;;5064754;28;20191;-67
2023/10/20 08:09:28;;;;;;;1999.90;999.90;;;;;;;;;;5066599;28;20509;-66
2023/10/20 08:11:56;;;;;;;1999.90;999.90;;;;;;;;;;5066538;28;20197;-67
2023/10/20 08:14:26;;;;;;;1999.90;999.90;;;;;;;;;;5063005;28;20322;-67
2023/10/20 08:16:53;;;;;;;1999.90;999.90;;;;;;;;;;5066189;28;20685;-67
2023/10/20 08:19:20;;;;;;;1999.90;999.90;;;;;;;;;;5065753;28;20193;-67
2023/10/20 08:21:48;;;;;;;1999.90;999.90;;;;;;;;;;5066555;28;20195;-68
2023/10/20 08:24:15;;;;;;;1999.90;999.90;;;;;;;;;;5065505;28;20190;-68
2023/10/20 08:26:42;;;;;;;1999.90;999.90;;;;;;;;;;5066676;28;20622;-68
2023/10/20 08:29:11;;;;;;;1999.90;999.90;;;;;;;;;;5063391;28;20192;-67
2023/10/20 08:31:40;;;;;;;1999.90;999.90;;;;;;;;;;5065769;28;20188;-67
2023/10/20 08:34:09;;;;;;;1999.90;999.90;;;;;;;;;;5065811;28;20714;-67
2023/10/20 08:36:37;;;;;;;1999.90;999.90;;;;;;;;;;5065600;28;20202;-67
2023/10/20 08:39:13;;;;;;;1999.90;999.90;;;;;;;;;;5066409;28;20680;-67
2023/10/20 08:41:42;;;;;;;1999.90;999.90;;;;;;;;;;5061754;28;20747;-68
2023/10/20 08:44:11;;;;;;;1999.90;999.90;;;;;;;;;;5066437;28;20183;-67
2023/10/20 08:46:40;;;;;;;1999.90;999.90;;;;;;;;;;5064521;28;20195;-68
2023/10/20 08:49:08;;;;;;;1999.90;999.90;;;;;;;;;;5065610;28;20753;-68
2023/10/20 08:51:38;;;;;;;1999.90;999.90;;;;;;;;;;5065856;28;20193;-67
2023/10/20 08:54:08;;;;;;;1999.90;999.90;;;;;;;;;;5065705;28;20243;-65
2023/10/20 08:56:35;;;;;;;1999.90;999.90;;;;;;;;;;5065940;28;20524;-67
2023/10/20 08:59:03;;;;;;;1999.90;999.90;;;;;;;;;;5065577;28;20196;-67
2023/10/20 09:01:30;;;;;;;1999.90;999.90;;;;;;;;;;5066446;28;20713;-67
2023/10/20 09:04:00;;;;;;;1999.90;999.90;;;;;;;;;;5065583;28;20206;-68
2023/10/20 09:06:30;;;;;;;1999.90;999.90;;;;;;;;;;5064735;28;20700;-68
2023/10/20 09:08:59;;;;;;;1999.90;999.90;;;;;;;;;;5065194;28;20198;-67
2023/10/20 09:11:30;;;;;;;1999.90;999.90;;;;;;;;;;5062494;28;20188;-67
2023/10/20 09:13:58;;;;;;;1999.90;999.90;;;;;;;;;;5064800;28;20667;-68
2023/10/20 09:16:25;;;;;;;1999.90;999.90;;;;;;;;;;5060964;28;20189;-68
2023/10/20 09:18:54;;;;;;;1999.90;999.90;;;;;;;;;;5066219;28;20193;-67
2023/10/20 09:21:24;;;;;;;1999.90;999.90;;;;;;;;;;5064124;28;20206;-67
2023/10/20 09:23:55;;;;;;;1999.90;999.90;;;;;;;;;;5064957;28;20190;-68
2023/10/20 09:26:22;;;;;;;1999.90;999.90;;;;;;;;;;5065757;28;20203;-67
2023/10/20 09:28:50;;;;;;;1999.90;999.90;;;;;;;;;;5066522;28;20193;-68
2023/10/20 09:31:20;;;;;;;1999.90;999.90;;;;;;;;;;5066639;28;20251;-68
2023/10/20 09:33:47;;;;;;;1999.90;999.90;;;;;;;;;;5066444;28;20234;-67
2023/10/20 09:36:15;;;;;;;1999.90;999.90;;;;;;;;;;5065014;28;20199;-67
2023/10/20 09:38:45;;;;;;;1999.90;999.90;;;;;;;;;;5065736;28;20200;-67
2023/10/20 09:41:13;;;;;;;1999.90;999.90;;;;;;;;;;5044468;28;20202;-67
2023/10/20 09:43:47;;;;;;;1999.90;999.90;;;;;;;;;;5046366;28;20347;-67
2023/10/20 09:46:21;;;;;;;1999.90;999.90;;;;;;;;;;5049850;28;20184;-67
2023/10/20 09:48:52;;;;;;;1999.90;999.90;;;;;;;;;;5058935;28;20558;-67
2023/10/20 09:51:21;;;;;;;1999.90;999.90;;;;;;;;;;5069524;28;20212;-67
2023/10/20 09:53:50;;;;;;;1999.90;999.90;;;;;;;;;;5070100;28;20229;-67
2023/10/20 09:56:19;;;;;;;1999.90;999.90;;;;;;;;;;5069616;28;20199;-67
2023/10/20 09:58:46;;;;;;;1999.90;999.90;;;;;;;;;;5069267;28;20193;-67
2023/10/20 10:01:14;;;;;;;1999.90;999.90;;;;;;;;;;5069252;28;20194;-67
2023/10/20 10:03:42;;;;;;;1999.90;999.90;;;;;;;;;;5069034;28;20216;-67
2023/10/20 10:06:10;;;;;;;1999.90;999.90;;;;;;;;;;5069793;28;20566;-67
2023/10/20 10:08:41;;;;;;;1999.90;999.90;;;;;;;;;;5067301;28;20205;-67
2023/10/20 10:11:27;;;;;;;1999.90;999.90;;;;;;;;;;5069430;28;20203;-67
2023/10/20 10:13:55;;;;;;;1999.90;999.90;;;;;;;;;;5068960;28;20210;-67
2023/10/20 10:16:23;;;;;;;1999.90;999.90;;;;;;;;;;5066693;28;20205;-67
2023/10/20 10:18:54;;;;;;;1999.90;999.90;;;;;;;;;;5049500;28;20205;-67
2023/10/20 10:21:28;;;;;;;1999.90;999.90;;;;;;;;;;5049511;28;20185;-67
2023/10/20 10:24:18;;;;;;;1999.90;999.90;;;;;;;;;;5049346;28;20247;-69
2023/10/20 10:26:52;;;;;;;1999.90;999.90;;;;;;;;;;5048794;28;20649;-67
2023/10/20 10:29:22;;;;;;;1999.90;999.90;;;;;;;;;;5048860;28;20546;-67
2023/10/20 10:31:49;;;;;;;1999.90;999.90;;;;;;;;;;5048939;28;20211;-67
2023/10/20 10:34:17;;;;;;;1999.90;999.90;;;;;;;;;;5048956;28;20218;-67
2023/10/20 10:36:45;;;;;;;1999.90;999.90;;;;;;;;;;5067478;28;20210;-67
2023/10/20 10:39:22;;;;;;;1999.90;999.90;;;;;;;;;;5068206;28;20203;-67
2023/10/20 10:41:50;;;;;;;1999.90;999.90;;;;;;;;;;5068674;28;20212;-68
2023/10/20 10:44:18;;;;;;;1999.90;999.90;;;;;;;;;;5067026;28;20224;-68
2023/10/20 10:46:47;;;;;;;1999.90;999.90;;;;;;;;;;5066808;28;20760;-67
2023/10/20 10:49:14;;;;;;;1999.90;999.90;;;;;;;;;;5069061;28;20282;-67
2023/10/20 10:51:46;;;;;;;1999.90;999.90;;;;;;;;;;5067826;28;20259;-69
2023/10/20 10:54:13;;;;;;;1999.90;999.90;;;;;;;;;;5067752;28;20276;-68
2023/10/20 10:56:42;;;;;;;1999.90;999.90;;;;;;;;;;5067302;28;20193;-68
2023/10/20 10:59:10;;;;;;;1999.90;999.90;;;;;;;;;;5067688;28;20268;-68
2023/10/20 11:01:40;;;;;;;1999.90;999.90;;;;;;;;;;5067173;28;20182;-68
2023/10/20 11:04:09;;;;;;;1999.90;999.90;;;;;;;;;;5068073;28;20194;-69
2023/10/20 11:06:37;;;;;;;1999.90;999.90;;;;;;;;;;5068431;28;20258;-69
2023/10/20 11:09:10;;;;;;;1999.90;999.90;;;;;;;;;;5066529;28;20315;-69
2023/10/20 11:11:42;;;;;;;1999.90;999.90;;;;;;;;;;5066811;28;20210;-69
2023/10/20 11:14:10;;;;;;;1999.90;999.90;;;;;;;;;;5065576;28;20608;-69
2023/10/20 11:16:39;;;;;;;1999.90;999.90;;;;;;;;;;5066299;28;20195;-69
2023/10/20 11:19:07;;;;;;;1999.90;999.90;;;;;;;;;;5067763;28;20225;-70
2023/10/20 11:21:44;;;;;;;1999.90;999.90;;;;;;;;;;5067717;28;20196;-70
2023/10/20 11:24:12;;;;;;;1999.90;999.90;;;;;;;;;;5065915;28;20193;-69
2023/10/20 11:26:39;;;;;;;1999.90;999.90;;;;;;;;;;5066880;28;20191;-69
2023/10/20 11:29:08;;;;;;;1999.90;999.90;;;;;;;;;;5067921;28;20552;-70
2023/10/20 11:31:37;;;;;;;1999.90;999.90;;;;;;;;;;5067451;28;20199;-70
2023/10/20 11:34:06;;;;;;;1999.90;999.90;;;;;;;;;;5067561;28;20792;-69
2023/10/20 11:36:34;;;;;;;1999.90;999.90;;;;;;;;;;5067451;28;20212;-69
2023/10/20 11:39:01;;;;;;;1999.90;999.90;;;;;;;;;;5067293;28;20191;-68
2023/10/20 11:41:28;;;;;;;1999.90;999.90;;;;;;;;;;5066005;28;20203;-68
2023/10/20 11:43:55;;;;;;;1999.90;999.90;;;;;;;;;;5066983;28;20309;-67
2023/10/20 11:46:23;;;;;;;1999.90;999.90;;;;;;;;;;5067600;28;20196;-68
2023/10/20 11:48:50;;;;;;;1999.90;999.90;;;;;;;;;;5067279;28;20197;-67
2023/10/20 11:51:19;;;;;;;1999.90;999.90;;;;;;;;;;5065813;28;20199;-67
2023/10/20 11:53:46;;;;;;;1999.90;999.90;;;;;;;;;;5066707;28;20189;-67
2023/10/20 11:56:13;;;;;;;1999.90;999.90;;;;;;;;;;5064989;28;20218;-67
2023/10/20 11:58:41;;;;;;;1999.90;999.90;;;;;;;;;;5067176;28;20209;-68
2023/10/20 12:01:08;;;;;;;1999.90;999.90;;;;;;;;;;5066757;28;20205;-67
2023/10/20 12:03:36;;;;;;;1999.90;999.90;;;;;;;;;;5066196;28;20201;-68
2023/10/20 12:06:04;;;;;;;1999.90;999.90;;;;;;;;;;5066188;28;20199;-68
2023/10/20 12:08:33;;;;;;;1999.90;999.90;;;;;;;;;;5066687;28;20704;-69
2023/10/20 12:11:01;;;;;;;1999.90;999.90;;;;;;;;;;5066550;28;20268;-70
2023/10/20 12:13:29;;;;;;;1999.90;999.90;;;;;;;;;;5066985;28;20190;-68
2023/10/20 12:15:56;;;;;;;1999.90;999.90;;;;;;;;;;5066867;28;20235;-68
2023/10/20 12:18:24;;;;;;;1999.90;999.90;;;;;;;;;;5065389;28;20195;-68
2023/10/20 12:20:53;;;;;;;1999.90;999.90;;;;;;;;;;5066898;28;20191;-68
2023/10/20 12:23:20;;;;;;;1999.90;999.90;;;;;;;;;;5065324;28;20208;-67
2023/10/20 12:25:49;;;;;;;1999.90;999.90;;;;;;;;;;5066807;28;20509;-67
2023/10/20 12:28:17;;;;;;;1999.90;999.90;;;;;;;;;;5066010;28;20220;-67
2023/10/20 12:30:45;;;;;;;1999.90;999.90;;;;;;;;;;5065692;28;20189;-67
2023/10/20 12:33:12;;;;;;;1999.90;999.90;;;;;;;;;;5066843;28;20303;-67
2023/10/20 12:35:40;;;;;;;1999.90;999.90;;;;;;;;;;5066389;28;20215;-69
2023/10/20 12:38:07;;;;;;;1999.90;999.90;;;;;;;;;;5065519;28;20596;-69
2023/10/20 12:40:35;;;;;;;1999.90;999.90;;;;;;;;;;5064834;28;20195;-70
2023/10/20 12:43:09;;;;;;;1999.90;999.90;;;;;;;;;;5066211;28;20195;-70
2023/10/20 12:45:38;;;;;;;1999.90;999.90;;;;;;;;;;5065561;28;20186;-70
2023/10/20 12:48:05;;;;;;;1999.90;999.90;;;;;;;;;;5066137;28;20209;-70
2023/10/20 12:50:33;;;;;;;1999.90;999.90;;;;;;;;;;5067041;28;20651;-69
2023/10/20 12:53:00;;;;;;;1999.90;999.90;;;;;;;;;;5066227;28;20220;-69
2023/10/20 12:55:28;;;;;;;1999.90;999.90;;;;;;;;;;5065418;28;20224;-69
2023/10/20 12:57:56;;;;;;;1999.90;999.90;;;;;;;;;;5066351;28;20197;-69
2023/10/20 13:00:25;;;;;;;1999.90;999.90;;;;;;;;;;5066488;28;20204;-69
2023/10/20 13:02:53;;;;;;;1999.90;999.90;;;;;;;;;;5065974;28;20204;-69
2023/10/20 13:05:21;;;;;;;1999.90;999.90;;;;;;;;;;5066328;28;20187;-68
2023/10/20 13:07:50;;;;;;;1999.90;999.90;;;;;;;;;;5066302;28;20652;-69
2023/10/20 13:10:17;;;;;;;1999.90;999.90;;;;;;;;;;5064673;28;20198;-68
2023/10/20 13:12:44;;;;;;;1999.90;999.90;;;;;;;;;;5066847;28;20200;-68
2023/10/20 13:15:13;;;;;;;1999.90;999.90;;;;;;;;;;5065447;28;20674;-68
2023/10/20 13:17:42;;;;;;;1999.90;999.90;;;;;;;;;;5066574;28;20283;-69
2023/10/20 13:20:11;;;;;;;1999.90;999.90;;;;;;;;;;5069673;28;20191;-68
2023/10/20 13:22:39;;;;;;;1999.90;999.90;;;;;;;;;;5070498;28;20229;-69
2023/10/20 13:25:07;;;;;;;1999.90;999.90;;;;;;;;;;5069919;28;20197;-73
2023/10/20 13:27:34;;;;;;;1999.90;999.90;;;;;;;;;;5070104;28;20204;-73
2023/10/20 13:30:02;;;;;;;1999.90;999.90;;;;;;;;;;5069983;28;20205;-72
2023/10/20 13:32:29;;;;;;;1999.90;999.90;;;;;;;;;;5069648;28;20255;-72
2023/10/20 13:34:58;;;;;;;1999.90;999.90;;;;;;;;;;5069516;28;20229;-70
2023/10/20 13:37:25;;;;;;;1999.90;999.90;;;;;;;;;;5070145;28;20195;-69
2023/10/20 13:39:53;;;;;;;1999.90;999.90;;;;;;;;;;5068258;28;20205;-70
2023/10/20 13:42:20;;;;;;;1999.90;999.90;;;;;;;;;;5069614;28;20652;-71
2023/10/20 13:44:48;;;;;;;1999.90;999.90;;;;;;;;;;5070014;28;20196;-69
2023/10/20 13:47:15;;;;;;;1999.90;999.90;;;;;;;;;;5069434;28;20194;-70
2023/10/20 13:49:44;;;;;;;1999.90;999.90;;;;;;;;;;5069779;28;20208;-70
2023/10/20 13:52:13;;;;;;;1999.90;999.90;;;;;;;;;;5067893;28;20208;-71
2023/10/20 13:54:40;;;;;;;1999.90;999.90;;;;;;;;;;5068348;28;20199;-70
2023/10/20 13:57:07;;;;;;;1999.90;999.90;;;;;;;;;;5068893;28;20248;-71
2023/10/20 13:59:35;;;;;;;1999.90;999.90;;;;;;;;;;5069754;28;20192;-74
2023/10/20 14:02:02;;;;;;;1999.90;999.90;;;;;;;;;;5067543;28;20203;-69
2023/10/20 14:04:30;;;;;;;1999.90;999.90;;;;;;;;;;5068737;28;20207;-66
2023/10/20 14:06:57;;;;;;;1999.90;999.90;;;;;;;;;;5068984;28;20229;-71
2023/10/20 14:09:26;;;;;;;1999.90;999.90;;;;;;;;;;5068121;28;20569;-71
2023/10/20 14:11:54;;;;;;;1999.90;999.90;;;;;;;;;;5068416;28;20644;-70